Adair Village, Oregon
Current Conditions -  °F | °C
As of 12:55 PM on Thursday 18 Dec 2014 (Local Time) from KCVO Reporting Station
Overcast Overcast  
Wind Chill: 52°   Ceiling: 7500
Heat Index: 52°   Visibility: 10mi
Dew Point: 46°   Wind: 9mph
Humidity: 82%   Direction: 190°S
Pressure: 29.89"   Gusts: NA
Location:  44.6364°N, 123.28°W
Report Text: KCVO 182055Z AUTO 19008KT 10SM FEW041 OVC075 11/08 A2989 RMK AO1 57027
Loading
Personal Weather Stations






























Interactive Weather Map New forecast layout! Learn more

10-Day Weather Forecast

Advertisements
Track Severe Weather on mobile